Weather at Oishei Childrens Hospital Heliport

Public forecast

Using degrees Fahrenheit for public forecast. Weather courtesy of forecast.io.

Closest aviation weather report (METAR) to Oishei Childrens Hospital Heliport

Closest report is Buffalo Niagara International Airport, 6.4 nm (11.9 km) ENE.

2024/05/29 07:54 (retrieved 23 minutes ago)

KBUF 290754Z 24003KT 3SM +RA BR SCT050 OVC070 14/13 A2992 RMK AO2 RAB03 SLP133 P0004 T01390128

Closest aviation forecast (TAF) to Oishei Childrens Hospital Heliport

Closest forecast is Buffalo Niagara International Airport, 6.4 nm (11.9 km) ENE.

2024/05/29 06:42 (retrieved 2 hours ago)

TAF KBUF 290539Z 2906/3006 VRB03KT 6SM BR BKN050 FM290900 VRB04KT 5SM BR BKN015 FM291600 01005KT P6SM BKN050 FM292200 34007KT P6SM SCT050